createdAt,value
2023-03-11T00:00:13.602Z,7.60
2023-03-11T00:02:41.194Z,10.23
2023-03-11T00:05:08.496Z,8.13
2023-03-11T00:07:35.184Z,4.90
2023-03-11T00:10:01.764Z,6.27
2023-03-11T00:12:28.958Z,4.33
2023-03-11T00:14:55.522Z,6.17
2023-03-11T00:17:22.174Z,6.67
2023-03-11T00:19:48.802Z,9.17
2023-03-11T00:22:15.714Z,6.30
2023-03-11T00:24:42.281Z,6.33
2023-03-11T00:27:09.047Z,8.37
2023-03-11T00:29:35.762Z,5.57
2023-03-11T00:32:02.338Z,9.47
2023-03-11T00:34:29.589Z,8.57
2023-03-11T00:36:56.166Z,6.73
2023-03-11T00:39:23.365Z,9.47
2023-03-11T00:41:50.866Z,7.20
2023-03-11T00:44:17.512Z,3.93
2023-03-11T00:46:44.126Z,6.07
2023-03-11T00:49:11.480Z,7.57
2023-03-11T00:51:38.164Z,7.33
2023-03-11T00:54:04.870Z,6.27
2023-03-11T00:56:31.849Z,9.60
2023-03-11T00:58:58.711Z,6.50
2023-03-11T01:01:25.413Z,3.83
2023-03-11T01:03:52.104Z,5.87
2023-03-11T01:06:19.078Z,8.93
2023-03-11T01:08:45.657Z,7.20
2023-03-11T01:11:12.198Z,7.10
2023-03-11T01:13:40.252Z,9.33
2023-03-11T01:16:08.351Z,9.57
2023-03-11T01:18:35.097Z,10.27
2023-03-11T01:21:01.685Z,7.03
2023-03-11T01:23:28.761Z,6.30
2023-03-11T01:25:55.396Z,7.73
2023-03-11T01:28:21.975Z,10.17
2023-03-11T01:30:48.588Z,7.90
2023-03-11T01:33:17.282Z,12.57
2023-03-11T01:35:44.619Z,8.53
2023-03-11T01:38:11.335Z,8.30
2023-03-11T01:40:40.377Z,10.83
2023-03-11T01:43:28.920Z,6.17
2023-03-11T01:45:55.558Z,9.87
2023-03-11T01:48:25.710Z,6.77
2023-03-11T01:50:52.505Z,10.73
2023-03-11T01:53:19.298Z,12.10
2023-03-11T01:55:47.855Z,6.80
2023-03-11T01:58:17.691Z,4.30
2023-03-11T02:00:44.703Z,9.67
2023-03-11T02:03:14.447Z,5.77
2023-03-11T02:05:41.651Z,7.37
2023-03-11T02:08:09.335Z,7.43
2023-03-11T02:10:37.656Z,7.20
2023-03-11T02:13:04.592Z,7.27
2023-03-11T02:15:31.728Z,7.63
2023-03-11T02:17:59.322Z,4.93
2023-03-11T02:20:26.667Z,6.53
2023-03-11T02:22:57.251Z,4.87
2023-03-11T02:25:34.403Z,11.73
2023-03-11T02:28:03.080Z,5.17
2023-03-11T02:30:30.511Z,6.50
2023-03-11T02:32:57.456Z,7.80
2023-03-11T02:35:24.889Z,6.33
2023-03-11T02:37:54.399Z,6.43
2023-03-11T02:40:24.740Z,15.30
2023-03-11T02:42:59.707Z,8.27
2023-03-11T02:45:27.270Z,12.33
2023-03-11T02:47:55.452Z,8.07
2023-03-11T02:50:22.633Z,8.67
2023-03-11T02:52:50.130Z,6.63
2023-03-11T02:55:18.248Z,11.80
2023-03-11T02:57:45.397Z,7.70
2023-03-11T03:00:15.212Z,12.30
2023-03-11T03:02:46.435Z,6.07
2023-03-11T03:05:13.306Z,5.07
2023-03-11T03:07:39.992Z,10.50
2023-03-11T03:10:08.199Z,6.77
2023-03-11T03:12:35.427Z,11.10
2023-03-11T03:15:02.196Z,11.23
2023-03-11T03:17:29.169Z,9.27
2023-03-11T03:19:56.140Z,5.57
2023-03-11T03:22:25.735Z,9.77
2023-03-11T03:24:53.218Z,10.17
2023-03-11T03:27:20.031Z,6.73
2023-03-11T03:29:46.764Z,7.73
2023-03-11T03:32:13.609Z,9.50
2023-03-11T03:34:40.473Z,6.77
2023-03-11T03:37:07.991Z,11.13
2023-03-11T03:39:34.663Z,10.80
2023-03-11T03:42:02.379Z,12.57
2023-03-11T03:44:31.501Z,6.20
2023-03-11T03:46:59.575Z,6.90
2023-03-11T03:49:27.391Z,11.33
2023-03-11T03:51:55.018Z,9.73
2023-03-11T03:54:28.096Z,10.43
2023-03-11T03:56:55.404Z,12.80
2023-03-11T03:59:22.422Z,9.23
2023-03-11T04:01:54.527Z,9.47
2023-03-11T04:04:23.936Z,11.17
2023-03-11T04:06:50.743Z,10.20
2023-03-11T04:09:19.227Z,6.17
2023-03-11T04:11:45.935Z,9.63
2023-03-11T04:14:14.959Z,10.40
2023-03-11T04:16:49.599Z,11.77
2023-03-11T04:19:16.907Z,9.17
2023-03-11T04:21:43.736Z,7.93
2023-03-11T04:24:11.473Z,7.37
2023-03-11T04:26:39.176Z,10.30
2023-03-11T04:29:10.040Z,9.63
2023-03-11T04:31:41.574Z,10.47
2023-03-11T04:34:09.165Z,11.83
2023-03-11T04:36:38.119Z,11.33
2023-03-11T04:39:06.692Z,7.27
2023-03-11T04:41:38.429Z,10.43
2023-03-11T04:44:06.811Z,13.27
2023-03-11T04:46:33.756Z,11.27
2023-03-11T04:49:02.419Z,9.30
2023-03-11T04:51:29.315Z,6.30
2023-03-11T04:53:56.360Z,7.17
2023-03-11T04:56:23.542Z,8.40
2023-03-11T04:58:50.719Z,7.90
2023-03-11T05:01:17.636Z,10.57
2023-03-11T05:03:45.234Z,13.00
2023-03-11T05:06:12.333Z,9.40
2023-03-11T05:08:38.963Z,10.97
2023-03-11T05:11:05.675Z,7.50
2023-03-11T05:13:32.383Z,13.47
2023-03-11T05:15:59.090Z,13.37
2023-03-11T05:18:25.990Z,8.83
2023-03-11T05:20:53.595Z,8.53
2023-03-11T05:23:23.950Z,9.07
2023-03-11T05:25:51.457Z,16.47
2023-03-11T05:28:18.091Z,11.03
2023-03-11T05:30:50.620Z,12.57
2023-03-11T05:33:18.027Z,13.83
2023-03-11T05:35:45.647Z,13.13
2023-03-11T05:38:12.626Z,11.00
2023-03-11T05:40:39.769Z,12.47
2023-03-11T05:43:07.012Z,16.53
2023-03-11T05:45:37.644Z,9.50
2023-03-11T05:48:05.329Z,12.07
2023-03-11T05:50:33.027Z,10.33
2023-03-11T05:53:00.540Z,13.17
2023-03-11T05:55:29.705Z,12.00
2023-03-11T05:57:56.385Z,8.97
2023-03-11T06:00:23.621Z,10.23
2023-03-11T06:02:52.610Z,12.50
2023-03-11T06:05:20.060Z,10.47
2023-03-11T06:07:48.880Z,11.43
2023-03-11T06:10:15.602Z,10.53
2023-03-11T06:12:42.482Z,12.17
2023-03-11T06:15:30.810Z,15.27
2023-03-11T06:17:59.369Z,14.43
2023-03-11T06:20:26.722Z,10.37
2023-03-11T06:22:53.475Z,14.27
2023-03-11T06:25:22.888Z,10.07
2023-03-11T06:27:53.421Z,8.70
2023-03-11T06:30:21.352Z,10.07
2023-03-11T06:33:17.158Z,12.03
2023-03-11T06:35:44.173Z,11.53
2023-03-11T06:38:10.865Z,10.00
2023-03-11T06:40:38.244Z,9.93
2023-03-11T06:43:05.063Z,16.13
2023-03-11T06:45:35.102Z,13.53
2023-03-11T06:48:01.833Z,13.07
2023-03-11T06:50:29.980Z,15.70
2023-03-11T06:53:01.854Z,15.27
2023-03-11T06:55:29.109Z,9.80
2023-03-11T06:57:55.828Z,12.07
2023-03-11T07:00:23.174Z,12.57
2023-03-11T07:02:55.265Z,12.20
2023-03-11T07:05:22.627Z,8.13
2023-03-11T07:07:54.281Z,12.87
2023-03-11T07:10:21.480Z,10.77
2023-03-11T07:12:48.366Z,8.50
2023-03-11T07:15:15.481Z,13.30
2023-03-11T07:17:42.411Z,10.97
2023-03-11T07:20:09.684Z,16.43
2023-03-11T07:22:36.462Z,12.43
2023-03-11T07:25:03.172Z,9.60
2023-03-11T07:27:29.879Z,12.03
2023-03-11T07:29:56.475Z,10.90
2023-03-11T07:32:23.242Z,8.87
2023-03-11T07:34:49.982Z,11.10
2023-03-11T07:37:16.981Z,9.93
2023-03-11T07:39:43.844Z,14.00
2023-03-11T07:42:10.649Z,11.83
2023-03-11T07:44:38.830Z,12.43
2023-03-11T07:47:05.751Z,9.40
2023-03-11T07:49:33.475Z,10.10
2023-03-11T07:52:00.215Z,9.50
2023-03-11T07:54:27.009Z,7.33
2023-03-11T07:56:53.665Z,5.60
2023-03-11T07:59:20.366Z,11.53
2023-03-11T08:01:47.402Z,7.17
2023-03-11T08:04:16.956Z,6.50
2023-03-11T08:06:45.274Z,5.23
2023-03-11T08:09:12.528Z,8.90
2023-03-11T08:11:39.214Z,7.07
2023-03-11T08:14:05.896Z,8.00
2023-03-11T08:16:32.596Z,5.87
2023-03-11T08:18:59.267Z,6.07
2023-03-11T08:21:27.352Z,8.70
2023-03-11T08:23:56.898Z,6.50
2023-03-11T08:26:23.825Z,8.03
2023-03-11T08:28:51.050Z,8.60
2023-03-11T08:31:22.362Z,11.80
2023-03-11T08:33:52.492Z,5.93
2023-03-11T08:36:20.371Z,9.77
2023-03-11T08:38:47.442Z,9.23
2023-03-11T08:41:14.281Z,7.50
2023-03-11T08:43:41.688Z,12.60
2023-03-11T08:46:08.774Z,6.67
2023-03-11T08:48:37.101Z,5.50
2023-03-11T08:51:09.103Z,7.77
2023-03-11T08:53:37.444Z,6.37
2023-03-11T08:56:04.418Z,4.17
2023-03-11T08:58:31.120Z,8.23
2023-03-11T09:00:57.810Z,10.10
2023-03-11T09:03:24.383Z,5.00
2023-03-11T09:05:56.899Z,3.53
2023-03-11T09:08:23.586Z,4.50
2023-03-11T09:10:50.251Z,4.37
2023-03-11T09:13:17.049Z,5.83
2023-03-11T09:15:44.324Z,3.13
2023-03-11T09:18:14.506Z,2.43
2023-03-11T09:20:41.781Z,4.20
2023-03-11T09:23:09.110Z,4.40
2023-03-11T09:25:35.765Z,2.77
2023-03-11T09:28:02.559Z,4.90
2023-03-11T09:30:30.063Z,2.73
2023-03-11T09:32:56.756Z,4.13
2023-03-11T09:35:23.539Z,5.07
2023-03-11T09:37:50.469Z,2.30
2023-03-11T09:40:19.769Z,2.10
2023-03-11T09:43:00.852Z,3.37
2023-03-11T09:45:28.352Z,4.80
2023-03-11T09:48:33.760Z,1.77
2023-03-11T09:51:00.381Z,1.50
2023-03-11T09:53:32.732Z,3.63
2023-03-11T09:56:00.120Z,2.80
2023-03-11T09:58:26.967Z,3.60
2023-03-11T10:00:53.931Z,2.20
2023-03-11T10:03:26.028Z,3.67
2023-03-11T10:05:54.753Z,3.83
2023-03-11T10:08:35.068Z,2.20
2023-03-11T10:11:10.964Z,2.93
2023-03-11T10:13:41.720Z,1.43
2023-03-11T10:16:18.742Z,2.83
2023-03-11T10:18:54.467Z,2.57
2023-03-11T10:21:28.873Z,2.87
2023-03-11T10:24:14.598Z,1.40
2023-03-11T10:26:49.203Z,2.20
2023-03-11T10:29:26.055Z,3.10
2023-03-11T10:31:56.782Z,2.97
2023-03-11T10:34:27.646Z,2.33
2023-03-11T10:37:01.995Z,1.93
2023-03-11T10:39:28.855Z,1.53
2023-03-11T10:41:57.540Z,1.77
2023-03-11T10:44:24.182Z,1.90
2023-03-11T10:46:50.845Z,3.27
2023-03-11T10:49:18.032Z,2.70
2023-03-11T10:51:46.342Z,1.53
2023-03-11T10:54:29.872Z,2.57
2023-03-11T10:57:04.226Z,3.57
2023-03-11T10:59:30.934Z,2.17
2023-03-11T11:02:17.867Z,3.10
2023-03-11T11:04:45.174Z,1.87
2023-03-11T11:07:28.846Z,2.33
2023-03-11T11:10:14.334Z,3.10
2023-03-11T11:13:07.447Z,2.10
2023-03-11T11:15:42.056Z,2.70
2023-03-11T11:18:27.100Z,3.43
2023-03-11T11:20:55.909Z,0.90
2023-03-11T11:23:27.281Z,3.57
2023-03-11T11:25:58.729Z,2.50
2023-03-11T11:28:25.431Z,5.17
2023-03-11T11:30:59.340Z,2.57
2023-03-11T11:33:26.003Z,4.57
2023-03-11T11:35:54.403Z,1.17
2023-03-11T11:38:24.089Z,3.70
2023-03-11T11:40:52.753Z,1.87
2023-03-11T11:43:32.664Z,4.13
2023-03-11T11:46:04.998Z,2.87
2023-03-11T11:48:41.947Z,2.23
2023-03-11T11:51:13.510Z,3.50
2023-03-11T11:53:42.660Z,5.87
2023-03-11T11:56:09.253Z,3.50
2023-03-11T11:58:36.397Z,2.50
2023-03-11T12:01:15.152Z,2.30
2023-03-11T12:03:48.160Z,1.20
2023-03-11T12:06:23.851Z,16.30
2023-03-11T12:08:50.484Z,3.47
2023-03-11T12:11:24.047Z,2.63
2023-03-11T12:14:00.282Z,0.87
2023-03-11T12:16:43.881Z,3.07
2023-03-11T12:19:10.793Z,2.53
2023-03-11T12:21:40.533Z,2.87
2023-03-11T12:24:26.191Z,1.23
2023-03-11T12:26:54.399Z,2.67
2023-03-11T12:29:21.182Z,4.27
2023-03-11T12:31:48.446Z,3.17
2023-03-11T12:34:17.666Z,1.77
2023-03-11T12:36:45.471Z,1.83
2023-03-11T12:39:24.107Z,3.43
2023-03-11T12:42:09.678Z,1.77
2023-03-11T12:44:36.696Z,4.83
2023-03-11T12:47:06.374Z,2.60
2023-03-11T12:49:37.257Z,1.73
2023-03-11T12:52:09.925Z,4.53
2023-03-11T12:54:39.439Z,2.03
2023-03-11T12:57:12.185Z,5.57
2023-03-11T12:59:50.706Z,1.87
2023-03-11T13:02:36.022Z,5.10
2023-03-11T13:05:14.452Z,1.50
2023-03-11T13:07:41.216Z,2.03
2023-03-11T13:10:07.845Z,3.70
2023-03-11T13:12:41.341Z,2.90
2023-03-11T13:15:22.233Z,2.90
2023-03-11T13:18:07.826Z,3.77
2023-03-11T13:20:43.938Z,3.03
2023-03-11T13:23:22.866Z,4.37
2023-03-11T13:25:52.640Z,1.47
2023-03-11T13:28:31.783Z,2.43
2023-03-11T13:31:17.999Z,2.23
2023-03-11T13:33:55.111Z,3.80
2023-03-11T13:36:40.511Z,3.53
2023-03-11T13:39:27.406Z,3.90
2023-03-11T13:41:54.591Z,3.80
2023-03-11T13:44:24.278Z,1.30
2023-03-11T13:46:53.361Z,2.77
2023-03-11T13:49:23.102Z,4.83
2023-03-11T13:51:50.155Z,2.13
2023-03-11T13:54:20.404Z,4.33
2023-03-11T13:56:51.105Z,1.93
2023-03-11T13:59:27.934Z,3.50
2023-03-11T14:01:56.113Z,4.00
2023-03-11T14:04:25.716Z,2.53
2023-03-11T14:06:52.622Z,4.47
2023-03-11T14:09:20.239Z,2.77
2023-03-11T14:11:48.916Z,2.83
2023-03-11T14:14:30.257Z,3.83
2023-03-11T14:16:57.491Z,5.60
2023-03-11T14:19:24.200Z,2.97
2023-03-11T14:21:55.489Z,2.50
2023-03-11T14:24:31.592Z,2.40
2023-03-11T14:26:59.913Z,3.87
2023-03-11T14:29:32.355Z,2.60
2023-03-11T14:31:59.064Z,4.20
2023-03-11T14:34:31.742Z,3.17
2023-03-11T14:36:59.433Z,1.50
2023-03-11T14:39:26.096Z,3.50
2023-03-11T14:41:54.934Z,3.47
2023-03-11T14:44:22.959Z,3.83
2023-03-11T14:46:50.685Z,4.37
2023-03-11T14:49:20.362Z,2.63
2023-03-11T14:51:49.368Z,2.77
2023-03-11T14:54:18.772Z,3.47
2023-03-11T14:56:51.344Z,3.63
2023-03-11T14:59:26.949Z,3.40
2023-03-11T15:01:56.327Z,3.63
2023-03-11T15:04:33.063Z,3.20
2023-03-11T15:07:00.474Z,1.90
2023-03-11T15:09:28.451Z,2.67
2023-03-11T15:11:55.504Z,1.73
2023-03-11T15:14:22.431Z,2.10
2023-03-11T15:16:49.140Z,2.63
2023-03-11T15:19:28.096Z,2.93
2023-03-11T15:21:58.622Z,3.63
2023-03-11T15:24:27.760Z,22.33
2023-03-11T15:27:00.136Z,2.73
2023-03-11T15:29:27.253Z,2.67
2023-03-11T15:31:54.196Z,3.40
2023-03-11T15:34:26.314Z,1.77
2023-03-11T15:36:58.025Z,12.40
2023-03-11T15:39:30.597Z,17.53
2023-03-11T15:42:17.483Z,7.27
2023-03-11T15:44:53.692Z,2.13
2023-03-11T15:47:21.653Z,4.50
2023-03-11T15:49:48.723Z,2.13
2023-03-11T15:52:15.877Z,2.60
2023-03-11T15:54:47.418Z,2.60
2023-03-11T15:57:27.330Z,2.97
2023-03-11T15:59:55.314Z,3.40
2023-03-11T16:02:23.673Z,2.50
2023-03-11T16:04:53.065Z,2.20
2023-03-11T16:07:36.566Z,4.53
2023-03-11T16:10:06.027Z,2.70
2023-03-11T16:12:32.720Z,3.63
2023-03-11T16:14:59.439Z,5.27
2023-03-11T16:17:26.620Z,3.30
2023-03-11T16:19:55.503Z,4.53
2023-03-11T16:22:25.142Z,2.30
2023-03-11T16:24:52.880Z,4.10
2023-03-11T16:27:19.561Z,5.47
2023-03-11T16:29:46.530Z,3.93
2023-03-11T16:32:13.686Z,1.80
2023-03-11T16:34:40.494Z,3.60
2023-03-11T16:37:07.920Z,3.67
2023-03-11T16:39:34.863Z,4.03
2023-03-11T16:42:01.577Z,7.00
2023-03-11T16:44:28.316Z,4.93
2023-03-11T16:46:55.530Z,2.63
2023-03-11T16:49:22.239Z,5.10
2023-03-11T16:51:48.860Z,2.97
2023-03-11T16:54:15.452Z,3.13
2023-03-11T16:56:42.711Z,2.73
2023-03-11T16:59:09.680Z,3.13
2023-03-11T17:01:38.637Z,4.70
2023-03-11T17:04:06.862Z,4.40
2023-03-11T17:06:33.806Z,1.80
2023-03-11T17:09:00.518Z,2.93
2023-03-11T17:11:29.589Z,4.47
2023-03-11T17:14:03.263Z,2.60
2023-03-11T17:16:40.431Z,5.93
2023-03-11T17:19:07.578Z,7.07
2023-03-11T17:21:34.273Z,2.67
2023-03-11T17:24:00.954Z,3.50
2023-03-11T17:26:30.808Z,4.00
2023-03-11T17:28:57.422Z,5.30
2023-03-11T17:31:24.216Z,3.70
2023-03-11T17:33:50.974Z,3.07
2023-03-11T17:36:18.240Z,5.20
2023-03-11T17:38:45.729Z,6.33
2023-03-11T17:41:13.886Z,5.20
2023-03-11T17:43:40.785Z,7.67
2023-03-11T17:46:12.394Z,6.30
2023-03-11T17:48:39.012Z,8.90
2023-03-11T17:51:06.832Z,6.63
2023-03-11T17:53:33.674Z,4.83
2023-03-11T17:56:00.295Z,7.57
2023-03-11T17:58:26.965Z,6.50
2023-03-11T18:00:57.322Z,5.47
2023-03-11T18:03:23.902Z,8.40
2023-03-11T18:05:54.418Z,6.27
2023-03-11T18:08:21.023Z,9.03
2023-03-11T18:10:51.571Z,6.40
2023-03-11T18:13:18.860Z,8.27
2023-03-11T18:15:46.298Z,9.50
2023-03-11T18:18:13.222Z,10.27
2023-03-11T18:20:39.858Z,10.57
2023-03-11T18:23:06.494Z,9.00
2023-03-11T18:25:34.576Z,8.40
2023-03-11T18:28:01.258Z,9.77
2023-03-11T18:30:27.956Z,8.47
2023-03-11T18:32:54.719Z,6.20
2023-03-11T18:35:22.349Z,7.07
2023-03-11T18:37:49.000Z,8.53
2023-03-11T18:40:16.099Z,8.07
2023-03-11T18:42:42.932Z,11.23
2023-03-11T18:45:12.160Z,7.20
2023-03-11T18:47:38.839Z,11.50
2023-03-11T18:50:05.648Z,9.10
2023-03-11T18:52:32.271Z,9.93
2023-03-11T18:54:58.907Z,11.03
2023-03-11T18:57:25.522Z,9.70
2023-03-11T18:59:52.576Z,9.10
2023-03-11T19:02:19.181Z,13.07
2023-03-11T19:04:45.878Z,14.83
2023-03-11T19:07:12.660Z,11.87
2023-03-11T19:09:39.332Z,10.40
2023-03-11T19:12:06.235Z,12.07
2023-03-11T19:14:33.159Z,8.17
2023-03-11T19:17:00.150Z,8.63
2023-03-11T19:19:26.945Z,9.53
2023-03-11T19:21:53.527Z,18.37
2023-03-11T19:24:20.470Z,12.37
2023-03-11T19:26:47.137Z,13.30
2023-03-11T19:29:14.365Z,12.67
2023-03-11T19:31:41.134Z,12.00
2023-03-11T19:34:07.760Z,12.37
2023-03-11T19:36:35.140Z,12.83
2023-03-11T19:39:01.696Z,11.77
2023-03-11T19:41:28.360Z,15.27
2023-03-11T19:43:55.203Z,11.27
2023-03-11T19:46:22.183Z,13.20
2023-03-11T19:48:48.979Z,14.80
2023-03-11T19:51:17.395Z,16.57
2023-03-11T19:53:44.109Z,11.77
2023-03-11T19:56:11.667Z,11.77
2023-03-11T19:58:38.370Z,16.43
2023-03-11T20:01:05.009Z,11.13
2023-03-11T20:03:32.577Z,9.23
2023-03-11T20:06:04.366Z,11.77
2023-03-11T20:08:31.116Z,9.43
2023-03-11T20:11:00.577Z,11.30
2023-03-11T20:13:27.288Z,11.60
2023-03-11T20:15:54.051Z,8.60
2023-03-11T20:18:20.796Z,15.80
2023-03-11T20:20:47.451Z,18.40
2023-03-11T20:23:14.446Z,16.80
2023-03-11T20:25:41.755Z,15.87
2023-03-11T20:28:08.629Z,17.93
2023-03-11T20:30:36.777Z,16.77
2023-03-11T20:33:03.417Z,17.47
2023-03-11T20:35:30.062Z,14.23
2023-03-11T20:37:56.694Z,15.77
2023-03-11T20:40:23.391Z,14.60
2023-03-11T20:42:50.015Z,18.77
2023-03-11T20:45:21.553Z,11.90
2023-03-11T20:47:48.954Z,19.27
2023-03-11T20:50:15.991Z,19.27
2023-03-11T20:52:43.238Z,8.93
2023-03-11T20:55:10.400Z,10.17
2023-03-11T20:57:37.553Z,10.70
2023-03-11T21:00:08.068Z,6.60
2023-03-11T21:02:35.188Z,8.57
2023-03-11T21:05:02.162Z,10.93
2023-03-11T21:07:28.892Z,7.50
2023-03-11T21:09:57.827Z,8.40
2023-03-11T21:12:24.934Z,9.57
2023-03-11T21:14:51.783Z,6.00
2023-03-11T21:17:18.792Z,6.60
2023-03-11T21:19:46.251Z,7.17
2023-03-11T21:22:13.220Z,6.33
2023-03-11T21:24:39.905Z,10.17
2023-03-11T21:27:07.406Z,7.97
2023-03-11T21:29:34.231Z,7.67
2023-03-11T21:32:01.006Z,6.60
2023-03-11T21:34:27.774Z,5.50
2023-03-11T21:36:54.494Z,5.63
2023-03-11T21:39:21.870Z,5.20
2023-03-11T21:41:48.803Z,5.23
2023-03-11T21:44:15.522Z,6.57
2023-03-11T21:46:42.769Z,7.70
2023-03-11T21:49:09.441Z,4.93
2023-03-11T21:51:36.248Z,6.07
2023-03-11T21:54:05.376Z,5.97
2023-03-11T21:56:32.512Z,7.77
2023-03-11T21:58:59.277Z,9.07
2023-03-11T22:01:26.210Z,5.40
2023-03-11T22:03:53.050Z,6.10
2023-03-11T22:06:19.912Z,6.60
2023-03-11T22:08:46.942Z,7.20
2023-03-11T22:11:17.764Z,8.67
2023-03-11T22:13:46.785Z,6.00
2023-03-11T22:16:14.138Z,10.50
2023-03-11T22:18:40.907Z,7.47
2023-03-11T22:21:10.351Z,9.53
2023-03-11T22:23:37.562Z,9.87
2023-03-11T22:26:04.277Z,9.13
2023-03-11T22:28:31.087Z,9.60
2023-03-11T22:30:57.839Z,8.10
2023-03-11T22:33:24.477Z,7.23
2023-03-11T22:35:52.746Z,9.13
2023-03-11T22:38:19.471Z,9.10
2023-03-11T22:40:46.317Z,12.63
2023-03-11T22:43:13.088Z,10.30
2023-03-11T22:45:39.770Z,9.73
2023-03-11T22:48:06.774Z,6.33
2023-03-11T22:50:33.387Z,8.27
2023-03-11T22:53:00.094Z,8.00
2023-03-11T22:55:26.781Z,6.67
2023-03-11T22:57:53.476Z,10.73
2023-03-11T23:00:21.721Z,7.53
2023-03-11T23:02:49.406Z,6.90
2023-03-11T23:05:16.161Z,8.97
2023-03-11T23:07:42.798Z,6.87
2023-03-11T23:10:10.290Z,8.60
2023-03-11T23:12:37.275Z,9.60
2023-03-11T23:15:05.280Z,9.03
2023-03-11T23:17:32.185Z,8.80
2023-03-11T23:19:58.807Z,7.30
2023-03-11T23:22:25.622Z,5.87
2023-03-11T23:24:52.870Z,11.57
2023-03-11T23:27:19.888Z,9.47
2023-03-11T23:29:47.941Z,9.60
2023-03-11T23:32:14.701Z,8.77
2023-03-11T23:34:41.393Z,9.27
2023-03-11T23:37:08.166Z,7.83
2023-03-11T23:39:35.012Z,8.77
2023-03-11T23:42:04.877Z,10.07
2023-03-11T23:44:35.729Z,7.97
2023-03-11T23:47:02.312Z,8.13
2023-03-11T23:49:28.989Z,6.47
2023-03-11T23:51:55.638Z,6.67
2023-03-11T23:54:22.309Z,7.10
2023-03-11T23:56:48.957Z,7.87
2023-03-11T23:59:15.565Z,6.67
